sensor_id;sensor_type;location;lat;lon;timestamp;pressure;altitude;pressure_sealevel;temperature;humidity
11830;BME280;5972;42.134;24.718;2023-08-21T00:01:26;99678.94;;;26.49;76.46
11830;BME280;5972;42.134;24.718;2023-08-21T00:03:53;99675.63;;;26.41;77.31
11830;BME280;5972;42.134;24.718;2023-08-21T00:06:20;99680.63;;;26.21;78.51
11830;BME280;5972;42.134;24.718;2023-08-21T00:08:47;99675.72;;;26.38;77.61
11830;BME280;5972;42.134;24.718;2023-08-21T00:11:13;99682.63;;;26.33;77.47
11830;BME280;5972;42.134;24.718;2023-08-21T00:13:40;99687.72;;;26.22;78.16
11830;BME280;5972;42.134;24.718;2023-08-21T00:16:11;99678.63;;;26.09;79.50
11830;BME280;5972;42.134;24.718;2023-08-21T00:18:38;99685.84;;;26.06;79.63
11830;BME280;5972;42.134;24.718;2023-08-21T00:21:04;99688.28;;;25.92;81.54
11830;BME280;5972;42.134;24.718;2023-08-21T00:23:31;99698.91;;;25.81;83.23
11830;BME280;5972;42.134;24.718;2023-08-21T00:25:58;99695.84;;;25.79;83.11
11830;BME280;5972;42.134;24.718;2023-08-21T00:28:25;99699.69;;;25.81;83.12
11830;BME280;5972;42.134;24.718;2023-08-21T00:31:00;99691.84;;;25.80;83.45
11830;BME280;5972;42.134;24.718;2023-08-21T00:33:28;99696.03;;;25.72;84.30
11830;BME280;5972;42.134;24.718;2023-08-21T00:35:55;99700.69;;;25.62;84.96
11830;BME280;5972;42.134;24.718;2023-08-21T00:38:22;99698.81;;;25.72;84.64
11830;BME280;5972;42.134;24.718;2023-08-21T00:40:49;99701.03;;;25.77;84.61
11830;BME280;5972;42.134;24.718;2023-08-21T00:43:15;99701.56;;;25.59;86.39
11830;BME280;5972;42.134;24.718;2023-08-21T00:45:43;99685.88;;;25.52;87.01
11830;BME280;5972;42.134;24.718;2023-08-21T00:48:11;99681.19;;;25.24;88.95
11830;BME280;5972;42.134;24.718;2023-08-21T00:50:40;99683.63;;;25.22;89.11
11830;BME280;5972;42.134;24.718;2023-08-21T00:53:07;99693.13;;;25.21;88.88
11830;BME280;5972;42.134;24.718;2023-08-21T00:55:34;99702.50;;;25.40;87.39
11830;BME280;5972;42.134;24.718;2023-08-21T00:58:02;99689.75;;;25.30;87.98
11830;BME280;5972;42.134;24.718;2023-08-21T01:00:42;99696.25;;;25.23;88.60
11830;BME280;5972;42.134;24.718;2023-08-21T01:03:12;99694.47;;;25.16;89.79
11830;BME280;5972;42.134;24.718;2023-08-21T01:05:40;99693.38;;;25.26;88.25
11830;BME280;5972;42.134;24.718;2023-08-21T01:08:11;99689.47;;;25.11;88.30
11830;BME280;5972;42.134;24.718;2023-08-21T01:10:47;99696.84;;;25.02;88.78
11830;BME280;5972;42.134;24.718;2023-08-21T01:13:23;99695.47;;;24.94;88.84
11830;BME280;5972;42.134;24.718;2023-08-21T01:15:54;99693.38;;;24.98;87.75
11830;BME280;5972;42.134;24.718;2023-08-21T01:18:22;99689.28;;;24.90;87.83
11830;BME280;5972;42.134;24.718;2023-08-21T01:20:51;99694.41;;;24.88;88.27
11830;BME280;5972;42.134;24.718;2023-08-21T01:23:33;99702.22;;;24.93;87.59
11830;BME280;5972;42.134;24.718;2023-08-21T01:26:00;99696.75;;;25.05;86.21
11830;BME280;5972;42.134;24.718;2023-08-21T01:28:27;99700.59;;;24.95;87.42
11830;BME280;5972;42.134;24.718;2023-08-21T01:31:00;99696.75;;;25.05;86.51
11830;BME280;5972;42.134;24.718;2023-08-21T01:33:30;99683.44;;;25.00;85.87
11830;BME280;5972;42.134;24.718;2023-08-21T01:36:00;99695.72;;;24.99;87.11
11830;BME280;5972;42.134;24.718;2023-08-21T01:38:29;99707.47;;;24.87;88.79
11830;BME280;5972;42.134;24.718;2023-08-21T01:40:58;99689.69;;;24.88;88.53
11830;BME280;5972;42.134;24.718;2023-08-21T01:43:25;99695.59;;;24.90;87.98
11830;BME280;5972;42.134;24.718;2023-08-21T01:45:51;99702.38;;;24.85;88.83
11830;BME280;5972;42.134;24.718;2023-08-21T01:48:18;99693.13;;;24.92;88.04
11830;BME280;5972;42.134;24.718;2023-08-21T01:50:45;99698.59;;;24.96;88.10
11830;BME280;5972;42.134;24.718;2023-08-21T01:53:11;99704.47;;;24.98;87.43
11830;BME280;5972;42.134;24.718;2023-08-21T01:55:38;99697.34;;;24.97;87.20
11830;BME280;5972;42.134;24.718;2023-08-21T01:58:06;99690.88;;;24.87;87.62
11830;BME280;5972;42.134;24.718;2023-08-21T02:00:33;99690.88;;;24.87;87.52
11830;BME280;5972;42.134;24.718;2023-08-21T02:03:00;99667.22;;;24.70;88.33
11830;BME280;5972;42.134;24.718;2023-08-21T02:05:26;99695.06;;;24.79;88.88
11830;BME280;5972;42.134;24.718;2023-08-21T02:07:53;99686.13;;;24.88;87.57
11830;BME280;5972;42.134;24.718;2023-08-21T02:10:20;99692.97;;;24.83;88.40
11830;BME280;5972;42.134;24.718;2023-08-21T02:12:48;99698.59;;;24.96;87.47
11830;BME280;5972;42.134;24.718;2023-08-21T02:15:16;99693.38;;;24.98;86.98
11830;BME280;5972;42.134;24.718;2023-08-21T02:17:43;99701.59;;;25.01;86.86
11830;BME280;5972;42.134;24.718;2023-08-21T02:20:11;99693.00;;;25.12;85.89
11830;BME280;5972;42.134;24.718;2023-08-21T02:22:37;99686.63;;;24.99;86.73
11830;BME280;5972;42.134;24.718;2023-08-21T02:25:04;99685.06;;;24.98;87.07
11830;BME280;5972;42.134;24.718;2023-08-21T02:27:31;99669.91;;;24.73;88.99
11830;BME280;5972;42.134;24.718;2023-08-21T02:29:58;99693.75;;;24.83;89.12
11830;BME280;5972;42.134;24.718;2023-08-21T02:32:26;99681.28;;;24.92;88.39
11830;BME280;5972;42.134;24.718;2023-08-21T02:34:53;99679.03;;;24.86;88.82
11830;BME280;5972;42.134;24.718;2023-08-21T02:37:19;99678.22;;;25.02;87.42
11830;BME280;5972;42.134;24.718;2023-08-21T02:39:46;99672.03;;;24.82;88.74
11830;BME280;5972;42.134;24.718;2023-08-21T02:42:13;99669.59;;;25.00;87.21
11830;BME280;5972;42.134;24.718;2023-08-21T02:44:40;99668.69;;;24.91;88.21
11830;BME280;5972;42.134;24.718;2023-08-21T02:47:06;99687.44;;;24.83;89.47
11830;BME280;5972;42.134;24.718;2023-08-21T02:49:35;99687.03;;;24.68;90.81
11830;BME280;5972;42.134;24.718;2023-08-21T02:52:01;99701.28;;;24.83;90.61
11830;BME280;5972;42.134;24.718;2023-08-21T02:54:28;99694.28;;;24.78;90.60
11830;BME280;5972;42.134;24.718;2023-08-21T02:56:55;99695.34;;;24.68;91.36
11830;BME280;5972;42.134;24.718;2023-08-21T02:59:21;99671.03;;;24.60;91.91
11830;BME280;5972;42.134;24.718;2023-08-21T03:01:48;99692.22;;;24.66;91.79
11830;BME280;5972;42.134;24.718;2023-08-21T03:04:15;99687.38;;;24.70;91.60
11830;BME280;5972;42.134;24.718;2023-08-21T03:06:43;99693.25;;;24.72;91.74
11830;BME280;5972;42.134;24.718;2023-08-21T03:09:09;99676.81;;;24.65;90.85
11830;BME280;5972;42.134;24.718;2023-08-21T03:11:36;99686.94;;;24.72;91.45
11830;BME280;5972;42.134;24.718;2023-08-21T03:14:03;99680.75;;;24.80;90.26
11830;BME280;5972;42.134;24.718;2023-08-21T03:16:30;99683.97;;;24.95;89.05
11830;BME280;5972;42.134;24.718;2023-08-21T03:18:57;99686.03;;;24.91;88.87
11830;BME280;5972;42.134;24.718;2023-08-21T03:21:25;99681.53;;;24.81;89.39
11830;BME280;5972;42.134;24.718;2023-08-21T03:23:55;99694.94;;;24.82;90.61
11830;BME280;5972;42.134;24.718;2023-08-21T03:26:23;99681.50;;;24.68;90.37
11830;BME280;5972;42.134;24.718;2023-08-21T03:28:50;99692.72;;;24.94;88.16
11830;BME280;5972;42.134;24.718;2023-08-21T03:31:16;99675.50;;;24.70;89.98
11830;BME280;5972;42.134;24.718;2023-08-21T03:33:43;99698.78;;;24.72;90.53
11830;BME280;5972;42.134;24.718;2023-08-21T03:36:10;99699.03;;;24.78;90.18
11830;BME280;5972;42.134;24.718;2023-08-21T03:38:37;99699.59;;;24.57;91.63
11830;BME280;5972;42.134;24.718;2023-08-21T03:41:05;99691.19;;;24.60;91.54
11830;BME280;5972;42.134;24.718;2023-08-21T03:43:32;99695.34;;;24.52;92.32
11830;BME280;5972;42.134;24.718;2023-08-21T03:45:58;99699.06;;;24.62;91.33
11830;BME280;5972;42.134;24.718;2023-08-21T03:48:25;99704.00;;;24.54;92.11
11830;BME280;5972;42.134;24.718;2023-08-21T03:50:52;99697.41;;;24.48;92.41
11830;BME280;5972;42.134;24.718;2023-08-21T03:53:18;99703.56;;;24.39;93.34
11830;BME280;5972;42.134;24.718;2023-08-21T03:55:45;99689.38;;;24.54;91.75
11830;BME280;5972;42.134;24.718;2023-08-21T03:58:13;99699.84;;;24.62;91.57
11830;BME280;5972;42.134;24.718;2023-08-21T04:00:40;99701.75;;;24.49;92.42
11830;BME280;5972;42.134;24.718;2023-08-21T04:03:07;99711.00;;;24.42;92.81
11830;BME280;5972;42.134;24.718;2023-08-21T04:05:33;99711.59;;;24.50;91.72
11830;BME280;5972;42.134;24.718;2023-08-21T04:08:00;99706.22;;;24.59;90.51
11830;BME280;5972;42.134;24.718;2023-08-21T04:10:27;99694.94;;;24.82;87.87
11830;BME280;5972;42.134;24.718;2023-08-21T04:12:53;99704.03;;;24.99;86.87
11830;BME280;5972;42.134;24.718;2023-08-21T04:15:21;99702.34;;;25.18;85.05
11830;BME280;5972;42.134;24.718;2023-08-21T04:17:48;99707.88;;;25.31;84.13
11830;BME280;5972;42.134;24.718;2023-08-21T04:20:15;99711.47;;;25.44;83.28
11830;BME280;5972;42.134;24.718;2023-08-21T04:22:42;99699.28;;;25.41;82.20
11830;BME280;5972;42.134;24.718;2023-08-21T04:25:08;99711.88;;;25.71;80.64
11830;BME280;5972;42.134;24.718;2023-08-21T04:27:36;99692.81;;;25.86;78.40
11830;BME280;5972;42.134;24.718;2023-08-21T04:30:04;99713.38;;;26.14;76.34
11830;BME280;5972;42.134;24.718;2023-08-21T04:32:33;99718.34;;;26.06;77.46
11830;BME280;5972;42.134;24.718;2023-08-21T04:34:59;99705.34;;;26.16;75.49
11830;BME280;5972;42.134;24.718;2023-08-21T04:37:26;99703.81;;;26.27;74.30
11830;BME280;5972;42.134;24.718;2023-08-21T04:39:53;99711.03;;;26.37;73.60
11830;BME280;5972;42.134;24.718;2023-08-21T04:42:21;99714.34;;;26.58;71.73
11830;BME280;5972;42.134;24.718;2023-08-21T04:44:48;99711.91;;;26.81;70.18
11830;BME280;5972;42.134;24.718;2023-08-21T04:47:22;99713.13;;;26.93;69.20
11830;BME280;5972;42.134;24.718;2023-08-21T04:49:50;99720.59;;;26.83;70.25
11830;BME280;5972;42.134;24.718;2023-08-21T04:52:17;99716.06;;;27.11;68.14
11830;BME280;5972;42.134;24.718;2023-08-21T04:54:44;99717.38;;;27.19;67.14
11830;BME280;5972;42.134;24.718;2023-08-21T04:57:11;99721.97;;;27.57;64.98
11830;BME280;5972;42.134;24.718;2023-08-21T04:59:38;99726.84;;;27.31;66.48
11830;BME280;5972;42.134;24.718;2023-08-21T05:02:05;99734.09;;;27.07;68.97
11830;BME280;5972;42.134;24.718;2023-08-21T05:04:32;99730.97;;;27.48;67.36
11830;BME280;5972;42.134;24.718;2023-08-21T05:07:00;99731.44;;;27.99;65.29
11830;BME280;5972;42.134;24.718;2023-08-21T05:09:27;99730.16;;;28.22;63.31
11830;BME280;5972;42.134;24.718;2023-08-21T05:11:54;99734.75;;;28.65;60.54
11830;BME280;5972;42.134;24.718;2023-08-21T05:14:21;99728.03;;;29.03;58.92
11830;BME280;5972;42.134;24.718;2023-08-21T05:16:48;99715.00;;;29.00;58.44
11830;BME280;5972;42.134;24.718;2023-08-21T05:19:15;99737.00;;;29.34;57.16
11830;BME280;5972;42.134;24.718;2023-08-21T05:21:42;99729.41;;;29.16;57.51
11830;BME280;5972;42.134;24.718;2023-08-21T05:24:10;99726.16;;;29.36;56.13
11830;BME280;5972;42.134;24.718;2023-08-21T05:26:38;99732.00;;;29.56;54.62
11830;BME280;5972;42.134;24.718;2023-08-21T05:29:05;99738.03;;;29.64;54.30
11830;BME280;5972;42.134;24.718;2023-08-21T05:31:32;99735.69;;;29.81;53.77
11830;BME280;5972;42.134;24.718;2023-08-21T05:34:01;99736.53;;;30.38;51.00
11830;BME280;5972;42.134;24.718;2023-08-21T05:36:28;99733.47;;;31.07;48.00
11830;BME280;5972;42.134;24.718;2023-08-21T05:38:56;99730.47;;;31.64;46.73
11830;BME280;5972;42.134;24.718;2023-08-21T05:41:24;99736.91;;;31.85;46.25
11830;BME280;5972;42.134;24.718;2023-08-21T05:43:51;99729.88;;;32.04;45.03
11830;BME280;5972;42.134;24.718;2023-08-21T05:46:17;99743.19;;;32.99;41.98
11830;BME280;5972;42.134;24.718;2023-08-21T05:48:44;99736.09;;;33.04;41.65
11830;BME280;5972;42.134;24.718;2023-08-21T05:51:11;99735.31;;;33.23;41.41
11830;BME280;5972;42.134;24.718;2023-08-21T05:53:38;99743.03;;;33.54;40.39
11830;BME280;5972;42.134;24.718;2023-08-21T05:56:05;99735.44;;;34.23;39.00
11830;BME280;5972;42.134;24.718;2023-08-21T05:58:33;99739.50;;;35.24;37.56
11830;BME280;5972;42.134;24.718;2023-08-21T06:01:00;99743.44;;;35.88;35.87
11830;BME280;5972;42.134;24.718;2023-08-21T06:03:26;99742.34;;;36.46;34.96
11830;BME280;5972;42.134;24.718;2023-08-21T06:05:53;99749.22;;;36.67;33.74
11830;BME280;5972;42.134;24.718;2023-08-21T06:08:20;99746.94;;;37.24;32.36
11830;BME280;5972;42.134;24.718;2023-08-21T06:10:51;99756.78;;;37.47;32.08
11830;BME280;5972;42.134;24.718;2023-08-21T06:13:17;99758.00;;;37.93;31.56
11830;BME280;5972;42.134;24.718;2023-08-21T06:15:48;99745.50;;;38.12;30.74
11830;BME280;5972;42.134;24.718;2023-08-21T06:18:15;99759.56;;;38.48;30.78
11830;BME280;5972;42.134;24.718;2023-08-21T06:20:42;99757.88;;;38.82;29.56
11830;BME280;5972;42.134;24.718;2023-08-21T06:23:10;99760.50;;;38.32;29.81
11830;BME280;5972;42.134;24.718;2023-08-21T06:25:37;99751.56;;;37.62;30.33
11830;BME280;5972;42.134;24.718;2023-08-21T06:28:04;99762.97;;;38.16;30.48
11830;BME280;5972;42.134;24.718;2023-08-21T06:30:31;99760.53;;;37.96;29.41
11830;BME280;5972;42.134;24.718;2023-08-21T06:33:00;99759.38;;;38.16;29.49
11830;BME280;5972;42.134;24.718;2023-08-21T06:35:26;99765.94;;;38.54;28.96
11830;BME280;5972;42.134;24.718;2023-08-21T06:37:53;99755.41;;;38.54;29.19
11830;BME280;5972;42.134;24.718;2023-08-21T06:40:20;99764.34;;;39.01;27.55
11830;BME280;5972;42.134;24.718;2023-08-21T06:42:47;99739.66;;;38.10;28.77
11830;BME280;5972;42.134;24.718;2023-08-21T06:45:16;99768.94;;;38.61;28.24
11830;BME280;5972;42.134;24.718;2023-08-21T06:47:43;99763.88;;;37.65;29.56
11830;BME280;5972;42.134;24.718;2023-08-21T06:50:11;99757.91;;;36.75;30.17
11830;BME280;5972;42.134;24.718;2023-08-21T06:52:38;99762.38;;;36.32;30.81
11830;BME280;5972;42.134;24.718;2023-08-21T06:55:06;99756.50;;;36.18;31.05
11830;BME280;5972;42.134;24.718;2023-08-21T06:57:33;99734.47;;;36.00;31.53
11830;BME280;5972;42.134;24.718;2023-08-21T07:00:00;99751.88;;;36.04;31.95
11830;BME280;5972;42.134;24.718;2023-08-21T07:02:28;99761.88;;;35.89;32.25
11830;BME280;5972;42.134;24.718;2023-08-21T07:04:55;99760.56;;;35.67;32.65
11830;BME280;5972;42.134;24.718;2023-08-21T07:07:23;99752.38;;;35.64;32.37
11830;BME280;5972;42.134;24.718;2023-08-21T07:09:50;99760.28;;;35.37;32.98
11830;BME280;5972;42.134;24.718;2023-08-21T07:12:17;99760.16;;;35.10;33.54
11830;BME280;5972;42.134;24.718;2023-08-21T07:14:44;99753.28;;;35.16;33.21
11830;BME280;5972;42.134;24.718;2023-08-21T07:17:10;99747.50;;;35.53;33.09
11830;BME280;5972;42.134;24.718;2023-08-21T07:19:37;99750.59;;;35.55;33.29
11830;BME280;5972;42.134;24.718;2023-08-21T07:22:04;99745.69;;;35.56;33.10
11830;BME280;5972;42.134;24.718;2023-08-21T07:24:32;99722.16;;;35.42;33.56
11830;BME280;5972;42.134;24.718;2023-08-21T07:26:59;99733.97;;;35.74;32.60
11830;BME280;5972;42.134;24.718;2023-08-21T07:29:25;99745.97;;;36.13;32.29
11830;BME280;5972;42.134;24.718;2023-08-21T07:31:52;99748.81;;;35.80;32.46
11830;BME280;5972;42.134;24.718;2023-08-21T07:34:19;99747.78;;;36.05;31.95
11830;BME280;5972;42.134;24.718;2023-08-21T07:36:45;99744.47;;;35.79;32.21
11830;BME280;5972;42.134;24.718;2023-08-21T07:39:12;99732.16;;;35.65;32.35
11830;BME280;5972;42.134;24.718;2023-08-21T07:41:40;99736.28;;;35.75;32.12
11830;BME280;5972;42.134;24.718;2023-08-21T07:44:07;99740.84;;;35.56;32.81
11830;BME280;5972;42.134;24.718;2023-08-21T07:46:34;99737.81;;;36.04;31.81
11830;BME280;5972;42.134;24.718;2023-08-21T07:49:00;99732.16;;;36.10;31.23
11830;BME280;5972;42.134;24.718;2023-08-21T07:51:27;99722.69;;;36.07;31.48
11830;BME280;5972;42.134;24.718;2023-08-21T07:53:54;99728.09;;;36.16;31.82
11830;BME280;5972;42.134;24.718;2023-08-21T07:56:20;99727.22;;;36.55;31.24
11830;BME280;5972;42.134;24.718;2023-08-21T07:58:48;99726.41;;;36.71;30.31
11830;BME280;5972;42.134;24.718;2023-08-21T08:01:15;99737.16;;;36.78;30.36
11830;BME280;5972;42.134;24.718;2023-08-21T08:03:42;99723.03;;;36.84;30.29
11830;BME280;5972;42.134;24.718;2023-08-21T08:06:09;99729.91;;;36.94;29.92
11830;BME280;5972;42.134;24.718;2023-08-21T08:08:35;99727.75;;;37.17;29.75
11830;BME280;5972;42.134;24.718;2023-08-21T08:11:02;99729.81;;;37.16;29.08
11830;BME280;5972;42.134;24.718;2023-08-21T08:13:29;99716.09;;;37.72;28.77
11830;BME280;5972;42.134;24.718;2023-08-21T08:15:57;99721.34;;;37.52;28.50
11830;BME280;5972;42.134;24.718;2023-08-21T08:18:24;99722.34;;;37.54;28.38
11830;BME280;5972;42.134;24.718;2023-08-21T08:20:51;99707.78;;;37.80;27.47
11830;BME280;5972;42.134;24.718;2023-08-21T08:23:19;99718.34;;;37.74;28.27
11830;BME280;5972;42.134;24.718;2023-08-21T08:25:47;99708.53;;;37.56;28.24
11830;BME280;5972;42.134;24.718;2023-08-21T08:28:13;99706.41;;;36.69;29.11
11830;BME280;5972;42.134;24.718;2023-08-21T08:30:40;99712.69;;;36.06;29.70
11830;BME280;5972;42.134;24.718;2023-08-21T08:33:08;99701.19;;;35.54;30.77
11830;BME280;5972;42.134;24.718;2023-08-21T08:35:35;99704.97;;;36.35;30.14
11830;BME280;5972;42.134;24.718;2023-08-21T08:38:02;99701.91;;;36.38;29.91
11830;BME280;5972;42.134;24.718;2023-08-21T08:40:29;99695.47;;;36.49;29.51
11830;BME280;5972;42.134;24.718;2023-08-21T08:42:55;99691.41;;;36.96;28.99
11830;BME280;5972;42.134;24.718;2023-08-21T08:45:28;99687.97;;;37.20;28.83
11830;BME280;5972;42.134;24.718;2023-08-21T08:47:57;99687.72;;;37.54;28.26
11830;BME280;5972;42.134;24.718;2023-08-21T08:50:28;99690.56;;;37.83;28.14
11830;BME280;5972;42.134;24.718;2023-08-21T08:52:57;99686.88;;;37.64;27.87
11830;BME280;5972;42.134;24.718;2023-08-21T08:55:24;99684.38;;;37.20;28.41
11830;BME280;5972;42.134;24.718;2023-08-21T08:57:51;99693.94;;;37.05;28.79
11830;BME280;5972;42.134;24.718;2023-08-21T09:00:18;99682.09;;;37.13;28.73
11830;BME280;5972;42.134;24.718;2023-08-21T09:02:45;99685.00;;;37.37;28.23
11830;BME280;5972;42.134;24.718;2023-08-21T09:05:12;99679.53;;;36.62;28.87
11830;BME280;5972;42.134;24.718;2023-08-21T09:07:40;99672.47;;;36.17;29.74
11830;BME280;5972;42.134;24.718;2023-08-21T09:10:13;99676.16;;;36.75;29.39
11830;BME280;5972;42.134;24.718;2023-08-21T09:12:40;99672.03;;;36.76;29.09
11830;BME280;5972;42.134;24.718;2023-08-21T09:15:08;99670.44;;;36.86;29.13
11830;BME280;5972;42.134;24.718;2023-08-21T09:17:35;99672.56;;;36.75;29.34
11830;BME280;5972;42.134;24.718;2023-08-21T09:20:06;99663.63;;;36.65;28.89
11830;BME280;5972;42.134;24.718;2023-08-21T09:22:33;99658.69;;;36.82;28.88
11830;BME280;5972;42.134;24.718;2023-08-21T09:25:02;99651.53;;;36.76;28.86
11830;BME280;5972;42.134;24.718;2023-08-21T09:27:32;99640.34;;;36.53;28.85
11830;BME280;5972;42.134;24.718;2023-08-21T09:29:59;99648.88;;;36.94;28.87
11830;BME280;5972;42.134;24.718;2023-08-21T09:32:26;99635.03;;;36.91;29.05
11830;BME280;5972;42.134;24.718;2023-08-21T09:34:53;99631.78;;;37.22;28.42
11830;BME280;5972;42.134;24.718;2023-08-21T09:37:20;99620.78;;;37.48;28.07
11830;BME280;5972;42.134;24.718;2023-08-21T09:39:47;99637.47;;;37.76;27.65
11830;BME280;5972;42.134;24.718;2023-08-21T09:42:15;99624.53;;;37.86;27.77
11830;BME280;5972;42.134;24.718;2023-08-21T09:44:44;99620.47;;;37.82;27.38
11830;BME280;5972;42.134;24.718;2023-08-21T09:47:11;99627.66;;;37.53;27.83
11830;BME280;5972;42.134;24.718;2023-08-21T09:49:39;99617.00;;;37.70;27.80
11830;BME280;5972;42.134;24.718;2023-08-21T09:52:07;99616.63;;;37.79;27.84
11830;BME280;5972;42.134;24.718;2023-08-21T09:54:36;99605.94;;;38.21;27.13
11830;BME280;5972;42.134;24.718;2023-08-21T09:57:04;99617.97;;;38.03;26.36
11830;BME280;5972;42.134;24.718;2023-08-21T09:59:35;99603.78;;;37.54;27.42
11830;BME280;5972;42.134;24.718;2023-08-21T10:02:06;99608.00;;;37.72;26.96
11830;BME280;5972;42.134;24.718;2023-08-21T10:04:35;99606.28;;;37.33;26.78
11830;BME280;5972;42.134;24.718;2023-08-21T10:07:05;99613.72;;;36.95;27.71
11830;BME280;5972;42.134;24.718;2023-08-21T10:09:33;99597.63;;;36.38;28.54
11830;BME280;5972;42.134;24.718;2023-08-21T10:12:02;99576.06;;;36.46;28.32
11830;BME280;5972;42.134;24.718;2023-08-21T10:14:29;99597.66;;;36.79;28.06
11830;BME280;5972;42.134;24.718;2023-08-21T10:16:57;99589.56;;;36.64;28.10
11830;BME280;5972;42.134;24.718;2023-08-21T10:19:30;99596.81;;;36.90;27.55
11830;BME280;5972;42.134;24.718;2023-08-21T10:21:57;99576.44;;;37.08;27.85
11830;BME280;5972;42.134;24.718;2023-08-21T10:24:28;99573.16;;;37.88;26.68
11830;BME280;5972;42.134;24.718;2023-08-21T10:26:59;99580.03;;;38.36;26.41
11830;BME280;5972;42.134;24.718;2023-08-21T10:29:26;99576.69;;;38.37;26.18
11830;BME280;5972;42.134;24.718;2023-08-21T10:32:01;99581.00;;;37.76;25.91
11830;BME280;5972;42.134;24.718;2023-08-21T10:34:33;99574.16;;;37.36;26.78
11830;BME280;5972;42.134;24.718;2023-08-21T10:37:05;99573.03;;;36.85;27.50
11830;BME280;5972;42.134;24.718;2023-08-21T10:39:33;99580.53;;;36.19;27.26
11830;BME280;5972;42.134;24.718;2023-08-21T10:42:04;99578.22;;;36.18;27.46
11830;BME280;5972;42.134;24.718;2023-08-21T10:44:49;99577.41;;;36.29;27.39
11830;BME280;5972;42.134;24.718;2023-08-21T10:47:20;99568.53;;;36.02;27.88
11830;BME280;5972;42.134;24.718;2023-08-21T10:49:50;99570.47;;;36.35;27.84
11830;BME280;5972;42.134;24.718;2023-08-21T10:52:21;99568.19;;;36.34;27.89
11830;BME280;5972;42.134;24.718;2023-08-21T10:54:50;99562.09;;;36.18;28.07
11830;BME280;5972;42.134;24.718;2023-08-21T10:57:17;99563.19;;;35.99;28.07
11830;BME280;5972;42.134;24.718;2023-08-21T10:59:52;99562.56;;;36.34;27.71
11830;BME280;5972;42.134;24.718;2023-08-21T11:02:20;99556.94;;;36.75;27.56
11830;BME280;5972;42.134;24.718;2023-08-21T11:04:48;99558.34;;;37.28;26.88
11830;BME280;5972;42.134;24.718;2023-08-21T11:07:15;99557.56;;;37.57;26.20
11830;BME280;5972;42.134;24.718;2023-08-21T11:09:42;99560.41;;;37.52;26.52
11830;BME280;5972;42.134;24.718;2023-08-21T11:12:10;99565.41;;;37.40;26.80
11830;BME280;5972;42.134;24.718;2023-08-21T11:14:38;99559.63;;;36.91;27.09
11830;BME280;5972;42.134;24.718;2023-08-21T11:17:05;99564.63;;;37.45;26.89
11830;BME280;5972;42.134;24.718;2023-08-21T11:19:34;99549.19;;;37.46;26.21
11830;BME280;5972;42.134;24.718;2023-08-21T11:22:02;99547.88;;;37.77;25.69
11830;BME280;5972;42.134;24.718;2023-08-21T11:24:39;99546.50;;;37.83;25.62
11830;BME280;5972;42.134;24.718;2023-08-21T11:27:10;99532.41;;;37.59;25.27
11830;BME280;5972;42.134;24.718;2023-08-21T11:29:38;99528.03;;;37.58;26.44
11830;BME280;5972;42.134;24.718;2023-08-21T11:32:08;99542.41;;;37.00;26.42
11830;BME280;5972;42.134;24.718;2023-08-21T11:34:37;99551.91;;;37.33;26.48
11830;BME280;5972;42.134;24.718;2023-08-21T11:37:04;99555.19;;;37.37;25.90
11830;BME280;5972;42.134;24.718;2023-08-21T11:39:45;99544.16;;;37.03;26.14
11830;BME280;5972;42.134;24.718;2023-08-21T11:42:13;99544.97;;;36.98;26.51
11830;BME280;5972;42.134;24.718;2023-08-21T11:44:44;99539.63;;;37.25;26.64
11830;BME280;5972;42.134;24.718;2023-08-21T11:47:12;99529.63;;;37.24;25.97
11830;BME280;5972;42.134;24.718;2023-08-21T11:49:42;99528.34;;;37.25;26.62
11830;BME280;5972;42.134;24.718;2023-08-21T11:52:09;99541.34;;;37.03;26.51
11830;BME280;5972;42.134;24.718;2023-08-21T11:54:36;99538.53;;;37.03;26.70
11830;BME280;5972;42.134;24.718;2023-08-21T11:57:06;99540.00;;;37.16;26.79
11830;BME280;5972;42.134;24.718;2023-08-21T11:59:33;99543.75;;;36.94;26.41
11830;BME280;5972;42.134;24.718;2023-08-21T12:02:00;99539.50;;;36.76;26.88
11830;BME280;5972;42.134;24.718;2023-08-21T12:04:27;99533.00;;;36.46;26.88
11830;BME280;5972;42.134;24.718;2023-08-21T12:06:55;99542.91;;;36.63;26.15
11830;BME280;5972;42.134;24.718;2023-08-21T12:09:22;99524.22;;;36.66;26.01
11830;BME280;5972;42.134;24.718;2023-08-21T12:11:49;99545.97;;;37.01;26.03
11830;BME280;5972;42.134;24.718;2023-08-21T12:14:16;99540.72;;;36.86;26.32
11830;BME280;5972;42.134;24.718;2023-08-21T12:16:43;99537.50;;;36.71;26.66
11830;BME280;5972;42.134;24.718;2023-08-21T12:19:10;99539.72;;;36.37;26.81
11830;BME280;5972;42.134;24.718;2023-08-21T12:21:38;99528.59;;;36.56;26.97
11830;BME280;5972;42.134;24.718;2023-08-21T12:24:06;99527.88;;;36.50;26.77
11830;BME280;5972;42.134;24.718;2023-08-21T12:26:33;99520.38;;;36.58;26.38
11830;BME280;5972;42.134;24.718;2023-08-21T12:29:00;99521.28;;;36.36;26.69
11830;BME280;5972;42.134;24.718;2023-08-21T12:31:28;99527.22;;;36.33;26.69
11830;BME280;5972;42.134;24.718;2023-08-21T12:33:55;99519.31;;;36.14;27.03
11830;BME280;5972;42.134;24.718;2023-08-21T12:36:22;99510.31;;;36.33;27.01
11830;BME280;5972;42.134;24.718;2023-08-21T12:38:49;99516.47;;;36.25;27.17
11830;BME280;5972;42.134;24.718;2023-08-21T12:41:17;99520.16;;;36.56;27.28
11830;BME280;5972;42.134;24.718;2023-08-21T12:43:44;99507.06;;;36.58;26.73
11830;BME280;5972;42.134;24.718;2023-08-21T12:46:11;99503.19;;;36.67;27.11
11830;BME280;5972;42.134;24.718;2023-08-21T12:48:38;99484.22;;;36.97;26.48
11830;BME280;5972;42.134;24.718;2023-08-21T12:51:05;99493.31;;;37.15;26.13
11830;BME280;5972;42.134;24.718;2023-08-21T12:53:34;99493.59;;;37.35;25.87
11830;BME280;5972;42.134;24.718;2023-08-21T12:56:01;99477.34;;;37.71;25.84
11830;BME280;5972;42.134;24.718;2023-08-21T12:58:30;99497.72;;;37.83;25.29
11830;BME280;5972;42.134;24.718;2023-08-21T13:00:58;99474.03;;;37.43;25.23
11830;BME280;5972;42.134;24.718;2023-08-21T13:03:28;99477.09;;;37.45;26.07